Time;durP1;ratioP1;P1;durP2;ratioP2;P2;SDS_P1;SDS_P2;PMS_P1;PMS_P2;Temp;Humidity;BMP_temperature;BMP_pressure;BME280_temperature;BME280_humidity;BME280_pressure;Samples;Min_cycle;Max_cycle;Signal;HPM_P1;HPM_P2
2023/07/18 00:01:12;;;;;;;3.33;1.30;;;;;;;14.74;70.82;102040.81;4950375;28;20041;-94
2023/07/18 00:04:07;;;;;;;2.88;1.20;;;;;;;14.71;70.56;102037.38;4955170;28;20015;-94
2023/07/18 00:07:35;;;;;;;;;;;;;;;;;;;;;
2023/07/18 00:10:10;;;;;;;;;;;;;;;;;;;;;
2023/07/18 00:13:14;;;;;;;2.08;1.08;;;;;;;14.51;68.49;102029.97;4962755;28;20034;-93
2023/07/18 00:16:00;;;;;;;2.83;1.30;;;;;;;14.48;70.27;102037.03;4966789;28;20053;-95
2023/07/18 00:19:13;;;;;;;;;;;;;;;;;;;;;
2023/07/18 00:21:48;;;;;;;3.08;1.00;;;;;;;14.38;71.30;102037.22;4968186;28;20030;-94
2023/07/18 00:38:13;;;;;;;;;;;;;;;;;;;;;
2023/07/18 00:44:07;;;;;;;;;;;;;;;;;;;;;
2023/07/18 00:46:54;;;;;;;;;;;;;;;;;;;;;
2023/07/18 00:49:34;;;;;;;2.15;1.42;;;;;;;14.03;75.02;102041.47;4964681;28;20023;-93
2023/07/18 00:52:12;;;;;;;;;;;;;;;;;;;;;
2023/07/18 00:54:44;;;;;;;2.85;1.67;;;;;;;14.05;76.79;102037.06;4967945;28;20506;-94
2023/07/18 00:57:24;;;;;;;;;;;;;;;;;;;;;
2023/07/18 01:03:23;;;;;;;5.82;1.80;;;;;;;14.08;73.74;102026.53;4952935;28;20081;-93
2023/07/18 01:06:42;;;;;;;;;;;;;;;;;;;;;
2023/07/18 01:12:28;;;;;;;3.13;1.80;;;;;;;13.94;74.65;102018.97;4949112;28;20031;-94
2023/07/18 01:15:01;;;;;;;4.50;2.03;;;;;;;13.90;74.08;102017.34;4953914;28;20027;-92
2023/07/18 01:17:29;;;;;;;3.70;1.85;;;;;;;13.84;75.38;102012.22;4946929;28;20101;-92
2023/07/18 01:19:54;;;;;;;4.85;2.10;;;;;;;13.83;75.78;102015.75;4963420;28;20018;-93
2023/07/18 01:22:20;;;;;;;3.30;1.77;;;;;;;13.83;75.67;102017.50;4945066;28;20038;-91
2023/07/18 01:24:45;;;;;;;3.15;1.92;;;;;;;13.79;75.78;102022.78;4963837;28;20459;-93
2023/07/18 01:27:14;;;;;;;5.15;1.88;;;;;;;13.74;75.89;102027.25;4962937;28;20110;-92
2023/07/18 01:29:45;;;;;;;2.83;2.00;;;;;;;13.69;76.28;102023.84;4961801;28;20058;-93
2023/07/18 01:32:11;;;;;;;4.55;2.20;;;;;;;13.70;77.48;102014.28;4950570;28;20027;-94
2023/07/18 01:34:41;;;;;;;6.35;2.30;;;;;;;13.73;77.01;102014.22;4956837;28;20034;-93
2023/07/18 01:37:11;;;;;;;4.97;2.10;;;;;;;13.73;76.53;102003.75;4965030;28;20403;-93
2023/07/18 01:39:41;;;;;;;3.40;2.05;;;;;;;13.73;75.53;102004.59;4960953;28;20031;-92
2023/07/18 01:42:21;;;;;;;;;;;;;;;;;;;;;
2023/07/18 01:44:47;;;;;;;4.30;2.20;;;;;;;13.72;74.95;102002.88;4965460;28;20020;-93
2023/07/18 01:47:12;;;;;;;3.58;2.25;;;;;;;13.70;75.21;101998.59;4951849;28;20118;-93
2023/07/18 01:49:38;;;;;;;4.60;2.55;;;;;;;13.65;75.86;101996.06;4959076;28;20058;-93
2023/07/18 01:55:31;;;;;;;3.75;2.40;;;;;;;13.61;75.49;102002.25;4949902;28;20076;-94
2023/07/18 01:58:29;;;;;;;;;;;;;;;;;;;;;
2023/07/18 02:01:55;;;;;;;;;;;;;;;;;;;;;
2023/07/18 02:04:19;;;;;;;;;;;;;;;;;;;;;
2023/07/18 02:07:17;;;;;;;;;;;;;;;;;;;;;
2023/07/18 02:10:16;;;;;;;;;;;;;;;;;;;;;
2023/07/18 02:13:01;;;;;;;;;;;;;;;;;;;;;
2023/07/18 02:15:37;;;;;;;;;;;;;;;;;;;;;
2023/07/18 02:18:33;;;;;;;5.38;2.78;;;;;;;13.48;74.56;101973.72;4965849;28;20393;-94
2023/07/18 02:21:06;;;;;;;6.68;2.55;;;;;;;13.44;76.41;101972.06;4951896;28;20023;-95
2023/07/18 02:24:43;;;;;;;;;;;;;;;;;;;;;
2023/07/18 02:27:48;;;;;;;;;;;;;;;;;;;;;
2023/07/18 02:30:38;;;;;;;;;;;;;;;;;;;;;
2023/07/18 02:33:20;;;;;;;;;;;;;;;;;;;;;
2023/07/18 02:35:54;;;;;;;6.32;2.70;;;;;;;13.46;76.54;101977.25;4960133;28;20035;-93
2023/07/18 02:38:39;;;;;;;;;;;;;;;;;;;;;
2023/07/18 02:41:40;;;;;;;5.13;2.65;;;;;;;13.36;76.81;101979.13;4968467;28;20033;-94
2023/07/18 02:44:43;;;;;;;;;;;;;;;;;;;;;
2023/07/18 02:47:09;;;;;;;4.90;2.60;;;;;;;13.31;77.47;101970.56;4962901;28;20038;-91
2023/07/18 02:52:19;;;;;;;;;;;;;;;;;;;;;
2023/07/18 02:58:09;;;;;;;4.47;2.55;;;;;;;13.26;80.07;101977.59;4997555;28;20034;-95
2023/07/18 04:13:28;;;;;;;;;;;;;;;;;;;;;
2023/07/18 04:19:51;;;;;;;;;;;;;;;;;;;;;
2023/07/18 04:29:47;;;;;;;;;;;;;;;;;;;;;
2023/07/18 05:00:53;;;;;;;;;;;;;;;;;;;;;
2023/07/18 06:30:37;;;;;;;;;;;;;;;;;;;;;
2023/07/18 08:08:04;;;;;;;3.00;0.40;;;;;;;17.36;60.27;101920.97;4730133;23;20046;-91
2023/07/18 08:10:29;;;;;;;0.93;0.52;;;;;;;17.43;61.16;101926.84;5004045;28;20030;-91
2023/07/18 08:12:55;;;;;;;11.68;0.75;;;;;;;17.49;60.56;101925.75;5004950;28;20037;-90
2023/07/18 08:15:21;;;;;;;1.77;0.60;;;;;;;17.54;60.82;101926.47;5005721;28;20029;-90
2023/07/18 08:17:47;;;;;;;1.42;0.50;;;;;;;17.59;60.99;101928.00;4987343;28;20040;-90
2023/07/18 08:20:12;;;;;;;1.80;0.50;;;;;;;17.65;59.21;101921.63;5005738;28;20044;-93
2023/07/18 08:22:41;;;;;;;17.42;1.23;;;;;;;17.71;58.30;101923.16;5006165;28;20040;-93
2023/07/18 08:25:08;;;;;;;1.85;0.50;;;;;;;17.77;58.27;101922.06;5003455;28;20072;-92
2023/07/18 08:27:36;;;;;;;1.38;0.60;;;;;;;17.85;56.73;101920.00;5007211;28;20029;-91
2023/07/18 08:30:02;;;;;;;2.83;0.60;;;;;;;17.93;56.11;101917.94;5024187;28;20034;-90
2023/07/18 08:32:36;;;;;;;2.83;0.43;;;;;;;18.01;56.32;101909.78;5015543;28;20022;-90
2023/07/18 08:35:01;;;;;;;4.10;0.50;;;;;;;18.09;53.83;101912.09;5007364;28;20490;-91
2023/07/18 08:37:27;;;;;;;1.70;0.40;;;;;;;18.16;53.32;101908.28;5005069;28;20085;-91
2023/07/18 08:39:52;;;;;;;1.38;0.52;;;;;;;18.23;52.77;101912.38;5001921;28;20025;-92
2023/07/18 08:42:19;;;;;;;1.00;0.40;;;;;;;18.29;53.85;101906.00;5005814;28;21823;-91
2023/07/18 08:44:48;;;;;;;0.93;0.30;;;;;;;18.34;53.79;101902.25;5003707;28;20050;-91
2023/07/18 08:47:13;;;;;;;1.30;0.40;;;;;;;18.41;53.24;101907.28;4981543;28;20076;-91
2023/07/18 08:49:39;;;;;;;2.03;0.50;;;;;;;18.45;53.48;101906.19;5004163;28;20029;-91
2023/07/18 08:52:05;;;;;;;2.28;0.30;;;;;;;18.51;50.40;101898.06;5001950;28;20105;-90
2023/07/18 08:54:30;;;;;;;0.80;0.30;;;;;;;18.58;50.30;101891.59;5004220;28;20037;-91
2023/07/18 08:56:56;;;;;;;1.30;0.28;;;;;;;18.63;50.28;101892.25;5004294;28;20046;-90
2023/07/18 08:59:22;;;;;;;2.05;0.30;;;;;;;18.70;51.01;101890.22;5002420;28;20041;-90
2023/07/18 09:01:51;;;;;;;12.18;0.70;;;;;;;18.77;53.15;101890.81;5001506;28;20077;-91
2023/07/18 09:04:18;;;;;;;1.85;0.40;;;;;;;18.84;51.81;101881.69;4986147;28;20118;-91
2023/07/18 09:06:48;;;;;;;5.53;0.30;;;;;;;18.89;50.83;101878.84;4984873;28;20045;-92
2023/07/18 09:09:16;;;;;;;2.08;0.40;;;;;;;18.92;50.57;101874.31;4999680;28;20964;-93
2023/07/18 09:11:52;;;;;;;2.05;0.30;;;;;;;18.99;52.17;101869.66;4987729;28;20040;-94
2023/07/18 09:14:25;;;;;;;2.38;0.25;;;;;;;19.05;49.61;101873.78;5000508;28;20029;-94
2023/07/18 09:16:53;;;;;;;1.55;0.20;;;;;;;19.14;49.26;101870.72;5000182;28;20034;-92
2023/07/18 09:19:18;;;;;;;1.95;0.30;;;;;;;19.16;48.52;101868.88;4999471;28;20034;-91
2023/07/18 09:21:43;;;;;;;1.30;0.20;;;;;;;19.19;48.42;101871.38;4983271;28;20076;-90
2023/07/18 09:24:09;;;;;;;0.20;0.20;;;;;;;19.21;46.97;101864.25;4997513;28;20034;-92
2023/07/18 09:26:34;;;;;;;0.90;0.22;;;;;;;19.26;48.42;101856.13;5000549;28;20041;-91
2023/07/18 09:29:01;;;;;;;1.58;0.30;;;;;;;19.33;47.29;101854.91;4998819;28;20108;-91
2023/07/18 09:31:26;;;;;;;4.22;0.30;;;;;;;19.40;46.15;101861.59;4998660;28;20079;-93
2023/07/18 09:33:54;;;;;;;0.75;0.20;;;;;;;19.46;46.42;101863.13;4980991;28;20034;-90
2023/07/18 09:36:21;;;;;;;1.02;0.20;;;;;;;19.51;44.33;101855.81;4999512;28;20025;-94
2023/07/18 09:38:48;;;;;;;0.70;0.20;;;;;;;19.53;45.28;101847.84;5000270;28;20041;-92
2023/07/18 09:41:20;;;;;;;2.70;0.30;;;;;;;19.59;45.91;101852.81;4998626;28;20021;-94
2023/07/18 09:43:46;;;;;;;1.35;0.40;;;;;;;19.64;46.26;101849.97;5000439;28;20030;-92
2023/07/18 09:46:13;;;;;;;1.67;0.20;;;;;;;19.72;46.92;101845.16;5000733;28;20041;-94
2023/07/18 09:48:42;;;;;;;1.58;0.20;;;;;;;19.79;44.84;101843.09;5003619;28;20061;-91
2023/07/18 09:51:10;;;;;;;0.10;0.10;;;;;;;19.92;45.86;101840.75;4980898;28;20036;-93
2023/07/18 09:53:39;;;;;;;0.77;0.30;;;;;;;19.99;45.79;101839.47;5000284;28;20037;-92
2023/07/18 09:56:06;;;;;;;3.72;0.30;;;;;;;20.00;45.23;101835.91;4999525;28;20612;-90
2023/07/18 09:58:38;;;;;;;2.28;0.45;;;;;;;19.94;45.29;101844.16;4981442;28;21028;-91
2023/07/18 10:01:05;;;;;;;4.03;0.47;;;;;;;19.85;45.02;101843.63;4981851;28;20092;-92
2023/07/18 10:03:32;;;;;;;1.25;0.30;;;;;;;19.83;44.97;101844.66;4982690;28;20033;-90
2023/07/18 10:06:00;;;;;;;2.95;0.20;;;;;;;19.80;45.27;101844.78;4999502;28;20041;-96
2023/07/18 10:08:36;;;;;;;0.73;0.20;;;;;;;19.79;45.66;101837.81;4999334;28;20054;-94
2023/07/18 10:11:07;;;;;;;0.98;0.20;;;;;;;19.80;45.57;101832.47;4984537;28;20042;-94
2023/07/18 10:14:04;;;;;;;1.10;0.30;;;;;;;19.89;47.64;101832.97;4982925;28;20088;-93
2023/07/18 10:16:33;;;;;;;1.08;0.38;;;;;;;19.94;44.96;101831.78;5001830;28;20030;-93
2023/07/18 10:18:58;;;;;;;1.15;0.20;;;;;;;20.00;45.66;101822.72;4981284;28;20516;-91
2023/07/18 10:21:32;;;;;;;2.75;0.35;;;;;;;20.06;46.33;101827.69;4984596;28;20030;-91
2023/07/18 10:23:57;;;;;;;1.27;0.40;;;;;;;20.07;44.11;101825.94;4997464;28;20057;-91
2023/07/18 10:26:33;;;;;;;2.67;0.25;;;;;;;20.09;45.67;101811.69;4982903;28;20053;-91
2023/07/18 10:29:02;;;;;;;1.10;0.40;;;;;;;;;;4999075;28;20070;-90
2023/07/18 10:31:30;;;;;;;1.90;0.30;;;;;;;20.19;44.42;101819.13;4995794;28;20495;-90
2023/07/18 10:34:09;;;;;;;1.60;0.35;;;;;;;20.19;44.83;101805.94;5000493;28;20053;-90
2023/07/18 10:36:35;;;;;;;1.00;0.30;;;;;;;20.15;43.90;101800.78;4998648;28;20139;-91
2023/07/18 10:39:12;;;;;;;0.57;0.40;;;;;;;;;;4999051;28;20030;-91
2023/07/18 10:41:44;;;;;;;0.75;0.32;;;;;;;20.09;45.34;101801.13;4972400;28;20723;-91
2023/07/18 10:44:13;;;;;;;3.40;0.43;;;;;;;20.12;45.16;101798.34;4984272;28;20057;-93
2023/07/18 10:46:39;;;;;;;1.90;0.50;;;;;;;20.21;44.72;101796.13;4999542;28;20363;-94
2023/07/18 10:49:05;;;;;;;1.55;0.93;;;;;;;20.26;45.44;101784.41;5000144;28;20057;-92
2023/07/18 10:51:32;;;;;;;1.35;0.47;;;;;;;20.28;44.59;101786.97;4998803;28;20427;-92
2023/07/18 10:54:00;;;;;;;0.85;0.35;;;;;;;20.30;43.99;101785.13;5000666;28;21075;-94
2023/07/18 10:56:29;;;;;;;0.60;0.28;;;;;;;20.36;44.85;101782.13;5005419;28;20168;-92
2023/07/18 10:58:57;;;;;;;0.45;0.25;;;;;;;20.40;44.67;101783.69;5005326;28;20061;-93
2023/07/18 11:01:27;;;;;;;1.65;0.40;;;;;;;20.44;45.03;101772.03;4989231;28;20037;-92
2023/07/18 11:03:52;;;;;;;1.15;0.38;;;;;;;20.53;44.87;101777.75;5005164;28;20037;-94
2023/07/18 11:06:21;;;;;;;2.10;0.50;;;;;;;20.53;44.30;101775.09;5006101;28;20630;-93
2023/07/18 11:08:46;;;;;;;2.83;0.50;;;;;;;20.52;44.23;101774.25;4997600;28;20103;-93
2023/07/18 11:11:14;;;;;;;1.73;0.50;;;;;;;20.53;43.60;101777.75;5007370;28;20033;-91
2023/07/18 11:13:42;;;;;;;0.95;0.50;;;;;;;20.55;43.99;101781.16;5007373;28;20044;-91
2023/07/18 11:16:09;;;;;;;1.13;0.40;;;;;;;20.57;44.81;101766.09;5006154;28;20029;-92
2023/07/18 11:18:40;;;;;;;1.23;0.35;;;;;;;20.58;43.86;101778.38;5006388;28;20026;-94
2023/07/18 11:21:06;;;;;;;2.25;0.50;;;;;;;20.59;44.70;101769.50;5005843;28;20273;-90
2023/07/18 11:23:33;;;;;;;1.48;0.50;;;;;;;20.59;44.03;101775.63;5005717;28;20110;-93
2023/07/18 11:25:58;;;;;;;3.05;0.40;;;;;;;20.60;42.97;101776.50;5005767;28;20026;-92
2023/07/18 11:28:33;;;;;;;1.30;0.50;;;;;;;20.62;45.75;101764.06;5003442;28;20053;-92
2023/07/18 11:30:58;;;;;;;2.25;0.40;;;;;;;20.64;44.91;101756.91;5005475;28;20052;-92
2023/07/18 11:33:28;;;;;;;0.80;0.40;;;;;;;20.69;45.45;101757.47;5002820;28;20042;-93
2023/07/18 11:35:53;;;;;;;2.30;0.50;;;;;;;20.72;43.89;101756.47;5002353;28;20034;-90
2023/07/18 11:38:21;;;;;;;1.58;0.40;;;;;;;20.74;44.76;101747.50;5005041;28;20057;-92
2023/07/18 11:40:46;;;;;;;1.23;0.50;;;;;;;20.79;44.08;101749.09;5004179;28;20041;-93
2023/07/18 11:43:20;;;;;;;2.90;0.40;;;;;;;20.80;44.71;101750.81;5004471;28;20026;-93
2023/07/18 11:45:46;;;;;;;2.03;0.50;;;;;;;20.78;44.21;101750.88;5008982;28;20053;-91
2023/07/18 11:48:13;;;;;;;1.58;0.60;;;;;;;20.81;44.49;101753.34;5002266;28;20088;-91
2023/07/18 11:50:43;;;;;;;1.80;0.50;;;;;;;20.85;44.18;101746.97;5004920;28;20033;-93
2023/07/18 11:53:09;;;;;;;1.77;0.40;;;;;;;20.87;44.31;101736.28;5006391;28;20038;-92
2023/07/18 11:55:34;;;;;;;1.42;0.47;;;;;;;20.87;45.18;101731.00;5006008;28;20022;-91
2023/07/18 11:57:59;;;;;;;0.88;0.40;;;;;;;20.90;44.67;101726.41;5002470;28;20597;-91
2023/07/18 12:00:25;;;;;;;1.80;0.40;;;;;;;20.93;43.84;101741.25;5007360;28;20049;-90
2023/07/18 12:02:52;;;;;;;2.35;0.43;;;;;;;20.96;43.16;101738.44;5020640;28;20030;-92
2023/07/18 12:05:17;;;;;;;1.65;0.40;;;;;;;20.99;43.01;101729.47;5003909;28;20033;-92
2023/07/18 12:07:44;;;;;;;3.70;0.70;;;;;;;21.01;44.63;101728.44;5002469;28;20057;-93
2023/07/18 12:10:10;;;;;;;0.85;0.30;;;;;;;21.03;43.76;101731.00;5004617;28;20026;-92
2023/07/18 12:12:40;;;;;;;1.70;0.50;;;;;;;21.06;43.77;101715.81;5003565;28;20068;-93
2023/07/18 12:15:09;;;;;;;2.22;0.80;;;;;;;21.15;43.48;101726.84;5003352;28;20021;-92
2023/07/18 12:17:34;;;;;;;2.25;0.50;;;;;;;21.17;43.80;101725.78;5002259;28;20034;-92
2023/07/18 12:20:00;;;;;;;2.45;0.52;;;;;;;21.21;43.39;101723.81;4984132;28;20080;-93
2023/07/18 12:22:26;;;;;;;3.58;0.50;;;;;;;21.22;43.06;101730.81;5000600;28;20030;-91
2023/07/18 12:24:51;;;;;;;2.33;0.57;;;;;;;21.25;44.96;101728.00;4984898;28;20045;-88
2023/07/18 12:27:16;;;;;;;2.40;0.45;;;;;;;21.27;43.86;101728.78;5000598;28;20467;-90
2023/07/18 12:29:42;;;;;;;1.42;0.40;;;;;;;21.29;43.33;101729.53;5002292;28;20033;-93
2023/07/18 12:32:10;;;;;;;1.52;0.40;;;;;;;21.33;43.61;101725.78;4983765;28;20040;-92
2023/07/18 12:34:39;;;;;;;1.08;0.43;;;;;;;21.40;45.91;101722.75;5002609;28;20033;-90
2023/07/18 12:37:04;;;;;;;1.48;0.40;;;;;;;21.43;45.60;101723.47;5000589;28;20041;-91
2023/07/18 12:39:30;;;;;;;2.28;0.60;;;;;;;21.47;43.19;101724.13;5002533;28;20100;-94
2023/07/18 12:41:55;;;;;;;2.28;0.50;;;;;;;21.51;41.19;101710.63;5000346;28;20117;-90
2023/07/18 12:44:21;;;;;;;1.05;0.30;;;;;;;21.58;42.15;101710.28;4983455;28;20487;-91
2023/07/18 12:46:46;;;;;;;1.30;0.52;;;;;;;21.61;41.11;101716.25;5000370;28;20061;-91
2023/07/18 12:49:13;;;;;;;1.95;0.63;;;;;;;21.65;42.64;101701.91;4999279;28;20067;-92
2023/07/18 12:51:40;;;;;;;0.82;0.38;;;;;;;21.70;42.29;101704.28;5005191;28;20034;-90
2023/07/18 12:54:05;;;;;;;1.33;0.50;;;;;;;21.73;41.64;101703.22;5005536;28;20028;-93
2023/07/18 12:56:33;;;;;;;4.05;0.60;;;;;;;21.75;42.75;101706.63;5001938;28;20017;-93
2023/07/18 12:59:01;;;;;;;3.55;0.40;;;;;;;21.77;43.57;101696.81;5003939;28;20572;-93
2023/07/18 13:01:27;;;;;;;2.00;0.47;;;;;;;21.82;45.32;101692.09;4985464;28;20040;-92
2023/07/18 13:03:52;;;;;;;2.03;0.40;;;;;;;21.86;40.31;101685.69;5003955;28;20037;-92
2023/07/18 13:06:18;;;;;;;1.02;0.50;;;;;;;21.91;39.26;101675.63;5000262;28;20667;-92
2023/07/18 13:08:43;;;;;;;0.88;0.38;;;;;;;21.97;39.29;101687.66;5004801;28;20061;-92
2023/07/18 13:11:08;;;;;;;0.95;0.25;;;;;;;22.02;40.61;101671.50;5002004;28;20112;-91
2023/07/18 13:13:34;;;;;;;1.75;0.40;;;;;;;22.02;40.17;101661.75;5003029;28;20041;-93
2023/07/18 13:15:59;;;;;;;1.10;0.40;;;;;;;22.03;40.92;101659.97;4985640;28;20548;-91
2023/07/18 13:18:24;;;;;;;1.48;0.52;;;;;;;22.00;40.22;101662.78;5002890;28;20050;-91
2023/07/18 13:20:50;;;;;;;1.88;0.40;;;;;;;21.97;41.53;101651.44;5003403;28;20046;-92
2023/07/18 13:23:15;;;;;;;1.55;0.47;;;;;;;22.00;40.44;101652.19;5004398;28;20034;-92
2023/07/18 13:25:41;;;;;;;1.05;0.50;;;;;;;22.01;39.56;101646.78;4998894;28;20105;-91
2023/07/18 13:28:06;;;;;;;1.95;0.50;;;;;;;22.05;41.24;101640.34;5001747;28;20406;-92
2023/07/18 13:30:31;;;;;;;1.13;0.40;;;;;;;22.07;40.50;101640.25;4985762;28;21390;-92
2023/07/18 13:32:57;;;;;;;1.88;0.57;;;;;;;22.08;40.64;101636.66;5003870;28;20033;-93
2023/07/18 13:35:22;;;;;;;1.15;0.60;;;;;;;22.07;39.67;101627.00;4986391;28;20033;-93
2023/07/18 13:37:48;;;;;;;2.45;0.60;;;;;;;22.08;42.83;101626.06;5004918;28;20026;-93
2023/07/18 13:40:13;;;;;;;2.13;0.50;;;;;;;22.04;41.97;101609.50;5001469;28;20083;-91
2023/07/18 13:42:38;;;;;;;0.73;0.50;;;;;;;22.06;41.41;101614.69;5000583;28;20022;-92
2023/07/18 13:45:07;;;;;;;0.93;0.60;;;;;;;22.09;40.03;101614.50;5002021;28;20022;-90
2023/07/18 13:47:33;;;;;;;3.08;0.57;;;;;;;22.12;39.13;101614.31;5001102;28;20021;-90
2023/07/18 13:49:58;;;;;;;1.75;0.50;;;;;;;22.15;39.43;101611.50;5001812;28;20626;-91
2023/07/18 13:52:24;;;;;;;0.63;0.50;;;;;;;22.13;41.31;101600.13;5001762;28;20070;-93
2023/07/18 13:54:49;;;;;;;1.30;0.35;;;;;;;22.11;41.07;101600.25;5001340;28;20120;-92
2023/07/18 13:57:14;;;;;;;0.82;0.43;;;;;;;22.14;40.37;101601.84;5002272;28;20397;-91
2023/07/18 13:59:40;;;;;;;1.80;0.40;;;;;;;22.20;41.50;101595.28;5002902;28;20081;-92
2023/07/18 14:02:06;;;;;;;1.77;0.50;;;;;;;22.25;40.79;101594.06;5003262;28;20482;-93
2023/07/18 14:04:32;;;;;;;1.35;0.40;;;;;;;22.32;38.39;101598.97;5002255;28;20030;-90
2023/07/18 14:06:57;;;;;;;1.33;0.40;;;;;;;22.35;38.60;101585.53;5002249;28;20040;-92
2023/07/18 14:09:23;;;;;;;2.78;0.52;;;;;;;22.41;37.79;101593.06;5002530;28;20496;-92
2023/07/18 14:11:49;;;;;;;1.30;0.50;;;;;;;22.44;38.18;101587.59;5000526;28;20036;-94
2023/07/18 14:14:14;;;;;;;1.45;0.57;;;;;;;22.50;38.62;101581.91;4999373;28;20030;-93
2023/07/18 14:16:51;;;;;;;1.27;0.40;;;;;;;22.55;36.81;101585.09;5002362;28;20050;-95
2023/07/18 14:19:16;;;;;;;0.93;0.40;;;;;;;22.61;36.03;101588.31;4984906;28;20037;-89
2023/07/18 14:21:41;;;;;;;1.33;0.55;;;;;;;22.66;35.77;101581.75;5002656;28;20033;-92
2023/07/18 14:24:06;;;;;;;1.05;0.50;;;;;;;22.74;37.70;101573.28;4997674;28;20034;-90
2023/07/18 14:26:32;;;;;;;1.38;0.50;;;;;;;22.83;35.73;101575.34;5002749;28;20072;-92
2023/07/18 14:28:57;;;;;;;1.38;0.50;;;;;;;22.90;36.85;101573.13;4984027;28;20042;-91
2023/07/18 14:31:24;;;;;;;0.93;0.43;;;;;;;22.93;36.58;101572.06;4984550;28;20034;-93
2023/07/18 14:33:49;;;;;;;1.10;0.43;;;;;;;22.97;36.76;101579.72;4984600;28;20033;-92
2023/07/18 14:36:14;;;;;;;0.88;0.50;;;;;;;23.01;36.55;101575.91;5001138;28;20034;-92
2023/07/18 14:38:40;;;;;;;0.63;0.40;;;;;;;23.05;35.46;101571.28;5003190;28;20026;-93
2023/07/18 14:41:05;;;;;;;1.83;0.60;;;;;;;23.10;35.49;101565.66;5002686;28;20026;-91
2023/07/18 14:43:33;;;;;;;1.27;0.50;;;;;;;23.14;35.56;101570.63;5002481;28;20352;-93
2023/07/18 14:45:59;;;;;;;1.17;0.40;;;;;;;23.17;35.76;101567.78;5002181;28;20034;-93
2023/07/18 14:48:28;;;;;;;1.33;0.52;;;;;;;23.28;35.84;101558.25;5002283;28;20061;-95
2023/07/18 14:50:53;;;;;;;2.83;0.75;;;;;;;23.34;35.15;101557.84;4985760;28;20033;-92
2023/07/18 14:53:19;;;;;;;1.52;0.57;;;;;;;23.36;35.39;101547.09;5003041;28;20034;-92
2023/07/18 14:55:44;;;;;;;1.05;0.52;;;;;;;23.44;37.52;101561.56;4983120;28;20065;-92
2023/07/18 14:58:10;;;;;;;1.33;0.50;;;;;;;23.61;37.17;101559.53;5006452;28;20026;-91
2023/07/18 15:00:36;;;;;;;3.42;0.60;;;;;;;23.65;35.03;101547.75;4998356;28;20539;-91
2023/07/18 15:03:01;;;;;;;1.65;0.50;;;;;;;23.70;34.48;101548.28;4979703;28;20032;-94
2023/07/18 15:05:27;;;;;;;2.17;0.68;;;;;;;23.77;34.57;101546.03;4981122;28;20029;-94
2023/07/18 15:08:32;;;;;;;2.70;0.52;;;;;;;23.84;34.14;101554.41;4998041;28;20054;-95
2023/07/18 15:10:57;;;;;;;1.35;0.45;;;;;;;23.90;34.18;101551.34;5001133;28;20034;-92
2023/07/18 15:13:22;;;;;;;2.47;0.50;;;;;;;23.99;33.40;101548.03;4984283;28;20096;-92
2023/07/18 15:15:48;;;;;;;2.72;0.60;;;;;;;24.09;33.09;101551.72;4999381;28;20037;-92
2023/07/18 15:18:15;;;;;;;1.00;0.55;;;;;;;24.15;32.51;101538.94;4977799;28;20045;-93
2023/07/18 15:20:40;;;;;;;0.65;0.43;;;;;;;24.23;33.16;101541.91;4978991;28;20026;-90
2023/07/18 15:23:06;;;;;;;2.67;0.70;;;;;;;24.32;32.65;101543.06;4999663;28;20087;-92
2023/07/18 15:25:31;;;;;;;1.30;0.45;;;;;;;24.41;32.14;101542.38;4998485;28;20104;-93
2023/07/18 15:27:59;;;;;;;1.50;0.65;;;;;;;24.55;32.86;101530.72;5000817;28;20399;-92
2023/07/18 15:30:25;;;;;;;2.20;0.50;;;;;;;24.65;31.90;101533.53;4984967;28;20030;-93
2023/07/18 15:32:50;;;;;;;1.40;0.60;;;;;;;24.79;32.30;101524.53;5001463;28;20037;-92
2023/07/18 15:35:15;;;;;;;2.50;0.60;;;;;;;24.99;31.82;101526.53;4996051;28;20034;-92
2023/07/18 15:37:41;;;;;;;1.45;0.50;;;;;;;25.10;31.38;101519.56;4997898;28;20034;-93
2023/07/18 15:40:07;;;;;;;0.90;0.60;;;;;;;25.17;31.96;101515.44;4999430;28;20076;-93
2023/07/18 15:42:33;;;;;;;0.65;0.52;;;;;;;25.19;32.33;101513.50;5007797;28;20034;-92
2023/07/18 15:44:58;;;;;;;2.65;0.50;;;;;;;25.27;31.82;101518.22;5004218;28;20506;-94
2023/07/18 15:47:24;;;;;;;2.78;0.50;;;;;;;25.39;31.84;101505.78;4990985;28;20026;-93
2023/07/18 15:49:49;;;;;;;1.92;0.73;;;;;;;25.40;33.93;101500.31;5004389;28;20045;-94
2023/07/18 15:52:18;;;;;;;1.83;0.40;;;;;;;25.43;33.05;101510.75;4987322;28;20033;-93
2023/07/18 15:54:45;;;;;;;2.63;0.50;;;;;;;25.56;30.64;101505.31;4983330;28;20467;-93
2023/07/18 15:57:11;;;;;;;2.72;0.50;;;;;;;25.76;30.48;101500.22;4986867;28;20367;-93
2023/07/18 15:59:37;;;;;;;1.65;0.50;;;;;;;26.21;29.80;101500.16;4981663;28;20036;-92
2023/07/18 16:02:03;;;;;;;1.38;0.50;;;;;;;26.51;30.87;101495.06;4984178;28;20493;-93
2023/07/18 16:04:29;;;;;;;1.35;0.40;;;;;;;26.62;28.93;101494.16;4985354;28;20022;-92
2023/07/18 16:07:04;;;;;;;;;;;;;;;;;;;;;
2023/07/18 16:09:30;;;;;;;2.17;0.60;;;;;;;26.82;28.64;101484.50;5003149;28;20052;-92
2023/07/18 16:11:56;;;;;;;1.58;0.35;;;;;;;27.09;28.13;101483.09;5015602;28;20069;-93
2023/07/18 16:14:22;;;;;;;1.02;0.50;;;;;;;27.22;27.82;101480.22;5008478;28;20121;-93
2023/07/18 16:16:47;;;;;;;1.38;0.40;;;;;;;27.50;27.62;101477.84;4989534;28;20420;-93
2023/07/18 16:19:12;;;;;;;0.50;0.40;;;;;;;27.80;27.81;101476.09;4987647;28;20064;-94
2023/07/18 16:21:39;;;;;;;2.17;0.50;;;;;;;27.75;27.09;101468.50;5005526;28;20101;-94
2023/07/18 16:24:09;;;;;;;0.98;0.50;;;;;;;27.74;27.68;101468.63;4990085;28;20028;-94
2023/07/18 16:26:49;;;;;;;;;;;;;;;27.81;29.90;101461.75;5015019;28;20051;-93
2023/07/18 16:29:30;;;;;;;1.17;0.50;;;;;;;27.88;26.85;101454.84;5016260;28;19918;-95
2023/07/18 16:31:56;;;;;;;;;;;;;;;28.07;29.79;101455.84;4988785;28;20117;-94
2023/07/18 16:34:21;;;;;;;1.33;0.40;;;;;;;28.51;25.58;101458.13;5001009;28;20313;-92
2023/07/18 16:36:46;;;;;;;1.90;0.50;;;;;;;28.53;26.34;101456.97;4986785;28;20447;-93
2023/07/18 16:39:12;;;;;;;0.90;0.40;;;;;;;28.51;26.11;101448.28;5002360;28;20040;-94
2023/07/18 16:41:38;;;;;;;0.75;0.40;;;;;;;28.73;26.75;101438.22;5004076;28;20990;-93
2023/07/18 16:44:04;;;;;;;1.40;0.63;;;;;;;29.11;27.02;101435.59;4989961;28;20025;-93
2023/07/18 16:46:31;;;;;;;1.02;0.50;;;;;;;29.10;25.29;101439.28;5006711;28;20168;-94
2023/07/18 16:48:57;;;;;;;1.42;0.40;;;;;;;29.10;25.48;101436.59;4988965;28;20033;-95
2023/07/18 16:51:22;;;;;;;1.35;0.60;;;;;;;29.26;24.48;101431.44;5005796;28;20026;-94
2023/07/18 16:53:50;;;;;;;1.02;0.50;;;;;;;29.40;24.11;101427.44;5004199;28;20070;-93
2023/07/18 16:56:16;;;;;;;1.25;0.57;;;;;;;29.40;23.75;101426.59;4986113;28;20057;-93
2023/07/18 16:58:42;;;;;;;0.95;0.50;;;;;;;29.45;23.82;101425.16;5003275;28;20053;-93
2023/07/18 17:01:08;;;;;;;1.02;0.60;;;;;;;29.50;24.35;101427.38;4983559;28;20034;-93
2023/07/18 17:03:33;;;;;;;1.92;0.52;;;;;;;29.44;23.93;101418.13;5002526;28;20057;-92
2023/07/18 17:05:59;;;;;;;3.17;0.70;;;;;;;29.43;23.49;101421.78;4983516;28;20068;-92
2023/07/18 17:08:24;;;;;;;0.93;0.50;;;;;;;29.36;24.06;101416.19;4997910;28;20046;-92
2023/07/18 17:10:50;;;;;;;0.90;0.40;;;;;;;29.37;23.51;101414.38;4980553;28;20390;-93
2023/07/18 17:13:18;;;;;;;2.20;0.50;;;;;;;29.23;24.87;101403.09;4984172;28;20041;-94
2023/07/18 17:16:04;;;;;;;;;;;;;;;;;;;;;
2023/07/18 17:18:41;;;;;;;;;;;;;;;;;;;;;
2023/07/18 17:21:07;;;;;;;0.70;0.43;;;;;;;29.40;24.86;101403.31;4985630;28;20038;-94
2023/07/18 17:23:34;;;;;;;1.55;0.50;;;;;;;29.96;24.20;101397.88;4984810;28;20036;-93
2023/07/18 17:26:34;;;;;;;;;;;;;;;;;;;;;
2023/07/18 17:29:00;;;;;;;0.98;0.55;;;;;;;31.53;22.84;101397.97;5000965;28;20029;-92
2023/07/18 17:31:26;;;;;;;33.08;4.72;;;;;;;32.23;22.54;101402.06;4999043;28;20049;-92
2023/07/18 17:33:51;;;;;;;10.23;1.67;;;;;;;32.39;21.53;101399.41;5000320;28;20030;-93
2023/07/18 17:36:52;;;;;;;;;;;;;;;;;;;;;
2023/07/18 17:39:20;;;;;;;4.95;0.70;;;;;;;31.85;22.79;101402.59;5000433;28;20042;-95
2023/07/18 17:41:47;;;;;;;1.30;0.80;;;;;;;31.76;22.32;101398.22;4997670;28;20029;-94
2023/07/18 17:44:12;;;;;;;1.23;0.60;;;;;;;32.18;22.71;101397.22;4963973;28;20029;-95
2023/07/18 17:46:38;;;;;;;1.00;0.43;;;;;;;31.99;22.48;101403.78;4984573;28;20017;-93
2023/07/18 17:49:19;;;;;;;1.63;0.50;;;;;;;31.46;22.94;101398.63;5011150;28;21399;-96
2023/07/18 17:51:45;;;;;;;1.65;0.60;;;;;;;30.93;22.89;101397.88;4986516;28;20065;-93
2023/07/18 17:54:10;;;;;;;0.63;0.40;;;;;;;30.38;23.00;101396.38;5000294;28;20065;-92